createdAt,value
2022-09-28T00:01:18.285Z,11.81
2022-09-28T00:03:47.511Z,11.78
2022-09-28T00:06:18.803Z,11.75
2022-09-28T00:08:46.996Z,11.72
2022-09-28T00:11:19.025Z,11.71
2022-09-28T00:13:51.852Z,11.68
2022-09-28T00:16:23.052Z,11.66
2022-09-28T00:18:51.574Z,11.64
2022-09-28T00:21:22.504Z,11.58
2022-09-28T00:24:14.383Z,11.55
2022-09-28T00:26:51.338Z,11.53
2022-09-28T00:29:34.434Z,11.49
2022-09-28T00:32:11.861Z,11.46
2022-09-28T00:34:46.109Z,11.44
2022-09-28T00:37:15.177Z,11.42
2022-09-28T00:39:43.611Z,11.39
2022-09-28T00:42:16.292Z,11.38
2022-09-28T00:44:57.466Z,11.37
2022-09-28T00:47:40.486Z,11.36
2022-09-28T00:50:21.670Z,11.35
2022-09-28T00:53:05.420Z,11.35
2022-09-28T00:55:54.209Z,11.33
2022-09-28T00:58:27.667Z,11.32
2022-09-28T01:00:58.280Z,11.31
2022-09-28T01:03:28.307Z,11.31
2022-09-28T01:05:59.262Z,11.32
2022-09-28T01:08:28.549Z,11.31
2022-09-28T01:10:59.494Z,11.32
2022-09-28T01:13:28.365Z,11.32
2022-09-28T01:16:22.497Z,11.32
2022-09-28T01:18:59.117Z,11.31
2022-09-28T01:21:27.496Z,11.31
2022-09-28T01:24:13.793Z,11.31
2022-09-28T01:26:44.833Z,11.31
2022-09-28T01:29:33.630Z,11.29
2022-09-28T01:32:27.565Z,11.27
2022-09-28T01:35:01.834Z,11.25
2022-09-28T01:37:46.850Z,11.25
2022-09-28T01:40:16.006Z,11.24
2022-09-28T01:42:48.209Z,11.24
2022-09-28T01:45:31.525Z,11.25
2022-09-28T01:48:05.140Z,11.25
2022-09-28T01:50:38.465Z,11.24
2022-09-28T01:53:15.697Z,11.24
2022-09-28T01:55:47.890Z,11.24
2022-09-28T01:58:23.633Z,11.23
2022-09-28T02:00:58.324Z,11.22
2022-09-28T02:03:35.254Z,11.21
2022-09-28T02:06:15.958Z,11.21
2022-09-28T02:08:54.318Z,11.22
2022-09-28T02:11:23.055Z,11.21
2022-09-28T02:14:04.091Z,11.21
2022-09-28T02:16:43.585Z,11.22
2022-09-28T02:19:20.698Z,11.23
2022-09-28T02:21:54.501Z,11.23
2022-09-28T02:24:24.633Z,11.23
2022-09-28T02:26:56.581Z,11.23
2022-09-28T02:29:25.133Z,11.22
2022-09-28T02:31:52.946Z,11.24
2022-09-28T02:34:20.896Z,11.24
2022-09-28T02:36:48.863Z,11.25
2022-09-28T02:39:19.194Z,11.25
2022-09-28T02:42:10.678Z,11.23
2022-09-28T02:45:09.395Z,11.24
2022-09-28T02:47:46.375Z,11.24
2022-09-28T02:50:24.336Z,11.24
2022-09-28T02:53:19.583Z,11.22
2022-09-28T02:55:56.423Z,11.20
2022-09-28T02:58:49.313Z,11.20
2022-09-28T03:01:34.837Z,11.19
2022-09-28T03:04:21.412Z,11.17
2022-09-28T03:06:54.960Z,11.15
2022-09-28T03:09:29.823Z,11.13
2022-09-28T03:12:01.594Z,11.11
2022-09-28T03:14:29.353Z,11.07
2022-09-28T03:16:57.066Z,11.04
2022-09-28T03:19:32.139Z,11.01
2022-09-28T03:22:01.132Z,10.99
2022-09-28T03:24:28.996Z,10.96
2022-09-28T03:26:56.758Z,10.94
2022-09-28T03:29:24.571Z,10.92
2022-09-28T03:31:52.612Z,10.90
2022-09-28T03:34:20.677Z,10.89
2022-09-28T03:36:48.734Z,10.87
2022-09-28T03:39:16.711Z,10.86
2022-09-28T03:41:44.771Z,10.86
2022-09-28T03:44:12.984Z,10.86
2022-09-28T03:46:40.710Z,10.85
2022-09-28T03:49:10.341Z,10.85
2022-09-28T03:51:38.284Z,10.85
2022-09-28T03:54:06.215Z,10.85
2022-09-28T03:56:34.114Z,10.84
2022-09-28T03:59:04.337Z,10.84
2022-09-28T04:01:32.480Z,10.84
2022-09-28T04:04:00.589Z,10.82
2022-09-28T04:06:28.344Z,10.79
2022-09-28T04:08:56.123Z,10.76
2022-09-28T04:11:24.388Z,10.74
2022-09-28T04:13:52.249Z,10.71
2022-09-28T04:16:20.051Z,10.69
2022-09-28T04:18:48.708Z,10.67
2022-09-28T04:21:19.776Z,10.65
2022-09-28T04:23:49.031Z,10.61
2022-09-28T04:26:22.942Z,10.57
2022-09-28T04:29:09.442Z,10.55
2022-09-28T04:31:44.482Z,10.53
2022-09-28T04:34:15.112Z,10.51
2022-09-28T04:36:46.733Z,10.48
2022-09-28T04:39:17.089Z,10.46
2022-09-28T04:41:47.923Z,10.45
2022-09-28T04:44:16.000Z,10.45
2022-09-28T04:46:43.860Z,10.45
2022-09-28T04:49:12.064Z,10.45
2022-09-28T04:51:39.792Z,10.46
2022-09-28T04:54:07.554Z,10.45
2022-09-28T04:56:35.525Z,10.41
2022-09-28T04:59:03.311Z,10.41
2022-09-28T05:01:31.549Z,10.39
2022-09-28T05:03:59.632Z,10.38
2022-09-28T05:06:30.702Z,10.35
2022-09-28T05:08:58.666Z,10.34
2022-09-28T05:11:26.916Z,10.32
2022-09-28T05:13:55.292Z,10.29
2022-09-28T05:16:25.250Z,10.29
2022-09-28T05:18:57.083Z,10.29
2022-09-28T05:21:26.570Z,10.28
2022-09-28T05:23:56.283Z,10.29
2022-09-28T05:26:24.555Z,10.31
2022-09-28T05:28:52.418Z,10.31
2022-09-28T05:31:20.251Z,10.31
2022-09-28T05:33:48.151Z,10.33
2022-09-28T05:36:15.933Z,10.33
2022-09-28T05:38:43.788Z,10.32
2022-09-28T05:41:11.883Z,10.31
2022-09-28T05:43:39.817Z,10.31
2022-09-28T05:46:08.362Z,10.33
2022-09-28T05:48:36.648Z,10.35
2022-09-28T05:51:04.775Z,10.34
2022-09-28T05:53:32.714Z,10.32
2022-09-28T05:56:00.785Z,10.31
2022-09-28T05:58:28.855Z,10.28
2022-09-28T06:00:57.603Z,10.24
2022-09-28T06:03:27.335Z,10.21
2022-09-28T06:05:55.629Z,10.20
2022-09-28T06:08:23.390Z,10.20
2022-09-28T06:10:51.152Z,10.20
2022-09-28T06:13:18.930Z,10.20
2022-09-28T06:15:46.782Z,10.20
2022-09-28T06:18:15.175Z,10.19
2022-09-28T06:20:43.537Z,10.20
2022-09-28T06:23:13.244Z,10.21
2022-09-28T06:25:41.325Z,10.22
2022-09-28T06:28:14.452Z,10.23
2022-09-28T06:30:44.060Z,10.26
2022-09-28T06:33:14.128Z,10.32
2022-09-28T06:35:42.591Z,10.37
2022-09-28T06:38:11.305Z,10.41
2022-09-28T06:40:39.635Z,10.43
2022-09-28T06:43:11.742Z,10.44
2022-09-28T06:45:39.598Z,10.45
2022-09-28T06:48:08.388Z,10.47
2022-09-28T06:50:42.947Z,10.49
2022-09-28T06:53:13.854Z,10.54
2022-09-28T06:55:43.764Z,10.56
2022-09-28T06:58:14.189Z,10.56
2022-09-28T07:00:42.565Z,10.57
2022-09-28T07:03:16.166Z,10.58
2022-09-28T07:05:46.692Z,10.60
2022-09-28T07:08:16.077Z,10.63
2022-09-28T07:10:45.750Z,10.69
2022-09-28T07:13:36.321Z,10.74
2022-09-28T07:16:02.942Z,10.80
2022-09-28T07:18:30.763Z,10.84
2022-09-28T07:20:59.588Z,10.87
2022-09-28T07:23:28.785Z,10.90
2022-09-28T07:25:58.347Z,10.91
2022-09-28T07:28:26.364Z,10.94
2022-09-28T07:30:57.218Z,10.97
2022-09-28T07:33:32.765Z,10.98
2022-09-28T07:36:06.775Z,10.98
2022-09-28T07:38:34.613Z,11.00
2022-09-28T07:41:11.591Z,11.03
2022-09-28T07:43:40.111Z,11.08
2022-09-28T07:46:12.362Z,11.14
2022-09-28T07:48:42.914Z,11.20
2022-09-28T07:51:10.735Z,11.22
2022-09-28T07:53:38.729Z,11.27
2022-09-28T07:56:09.064Z,11.30
2022-09-28T07:58:38.840Z,11.32
2022-09-28T08:01:10.532Z,11.38
2022-09-28T08:03:39.552Z,11.52
2022-09-28T08:06:11.347Z,11.69
2022-09-28T08:08:44.024Z,11.83
2022-09-28T08:11:13.425Z,11.91
2022-09-28T08:13:41.692Z,11.99
2022-09-28T08:16:09.771Z,12.06
2022-09-28T08:18:37.940Z,12.09
2022-09-28T08:21:25.263Z,12.10
2022-09-28T08:23:53.332Z,12.14
2022-09-28T08:26:21.915Z,12.20
2022-09-28T08:28:50.349Z,12.23
2022-09-28T08:31:18.275Z,12.25
2022-09-28T08:33:46.229Z,12.30
2022-09-28T08:36:14.300Z,12.34
2022-09-28T08:38:42.678Z,12.35
2022-09-28T08:41:47.977Z,12.42
2022-09-28T08:44:24.485Z,12.46
2022-09-28T08:47:06.777Z,12.51
2022-09-28T08:49:47.567Z,12.61
2022-09-28T08:52:25.192Z,12.64
2022-09-28T08:55:24.866Z,12.66
2022-09-28T08:58:05.222Z,12.73
2022-09-28T09:00:39.949Z,12.81
2022-09-28T09:03:13.657Z,12.92
2022-09-28T09:05:56.164Z,13.04
2022-09-28T09:09:08.772Z,13.14
2022-09-28T09:11:50.341Z,13.21
2022-09-28T09:14:18.421Z,13.16
2022-09-28T09:17:08.314Z,13.05
2022-09-28T09:19:49.598Z,13.01
2022-09-28T09:22:27.701Z,13.04
2022-09-28T09:25:19.936Z,13.16
2022-09-28T09:27:56.507Z,13.29
2022-09-28T09:30:30.349Z,13.44
2022-09-28T09:33:31.351Z,13.63
2022-09-28T09:36:21.647Z,13.86
2022-09-28T09:39:05.655Z,14.00
2022-09-28T09:41:48.201Z,14.10
2022-09-28T09:44:40.640Z,14.22
2022-09-28T09:47:14.959Z,14.38
2022-09-28T09:50:11.495Z,14.50
2022-09-28T09:53:18.672Z,14.62
2022-09-28T09:55:50.542Z,14.69
2022-09-28T09:58:44.929Z,14.62
2022-09-28T10:01:16.204Z,14.58
2022-09-28T10:03:48.352Z,14.58
2022-09-28T10:06:20.403Z,14.60
2022-09-28T10:09:23.802Z,14.56
2022-09-28T10:11:52.215Z,14.46
2022-09-28T10:14:25.163Z,14.35
2022-09-28T10:16:55.906Z,14.19
2022-09-28T10:19:35.642Z,14.06
2022-09-28T10:22:05.656Z,13.96
2022-09-28T10:24:45.247Z,13.92
2022-09-28T10:27:19.160Z,13.99
2022-09-28T10:30:00.908Z,14.19
2022-09-28T10:32:46.339Z,14.45
2022-09-28T10:35:24.808Z,14.51
2022-09-28T10:38:13.133Z,14.45
2022-09-28T10:40:44.958Z,14.38
2022-09-28T10:43:22.689Z,14.34
2022-09-28T10:46:08.260Z,14.31
2022-09-28T10:48:56.558Z,14.26
2022-09-28T10:51:44.140Z,14.20
2022-09-28T10:54:20.182Z,14.09
2022-09-28T10:56:49.501Z,13.98
2022-09-28T10:59:29.446Z,13.89
2022-09-28T11:02:02.788Z,13.83
2022-09-28T11:04:38.796Z,13.80
2022-09-28T11:07:18.237Z,13.75
2022-09-28T11:09:50.092Z,13.73
2022-09-28T11:12:24.614Z,13.73
2022-09-28T11:15:06.405Z,13.73
2022-09-28T11:17:43.998Z,13.71
2022-09-28T11:20:28.116Z,13.73
2022-09-28T11:23:20.490Z,13.74
2022-09-28T11:26:01.970Z,13.75
2022-09-28T11:28:33.465Z,13.75
2022-09-28T11:31:02.757Z,13.74
2022-09-28T11:33:30.894Z,13.74
2022-09-28T11:36:14.659Z,13.75
2022-09-28T11:39:18.110Z,13.76
2022-09-28T11:42:08.012Z,13.77
2022-09-28T11:44:40.380Z,13.74
2022-09-28T11:47:47.262Z,13.70
2022-09-28T11:50:24.889Z,13.70
2022-09-28T11:52:52.617Z,13.69
2022-09-28T11:55:54.280Z,13.67
2022-09-28T11:58:31.652Z,13.63
2022-09-28T12:01:23.900Z,13.61
2022-09-28T12:04:02.976Z,13.59
2022-09-28T12:06:40.828Z,13.57
2022-09-28T12:09:20.988Z,13.53
2022-09-28T12:11:54.788Z,13.56
2022-09-28T12:14:41.390Z,13.61
2022-09-28T12:17:36.747Z,13.67
2022-09-28T12:20:25.865Z,13.73
2022-09-28T12:22:59.568Z,13.80
2022-09-28T12:25:33.557Z,13.87
2022-09-28T12:28:07.797Z,13.94
2022-09-28T12:30:40.894Z,14.03
2022-09-28T12:33:13.355Z,14.15
2022-09-28T12:36:13.685Z,14.27
2022-09-28T12:39:40.974Z,14.33
2022-09-28T12:42:06.385Z,14.30
2022-09-28T12:44:59.755Z,14.25
2022-09-28T12:47:48.764Z,14.21
2022-09-28T12:50:41.579Z,14.15
2022-09-28T12:53:26.076Z,14.09
2022-09-28T12:56:04.184Z,14.06
2022-09-28T12:58:49.353Z,14.05
2022-09-28T13:01:40.138Z,14.01
2022-09-28T13:04:46.012Z,13.96
2022-09-28T13:07:22.192Z,13.90
2022-09-28T13:10:02.238Z,13.83
2022-09-28T13:12:39.408Z,13.79
2022-09-28T13:15:15.571Z,13.81
2022-09-28T13:18:01.970Z,13.85
2022-09-28T13:20:43.555Z,13.89
2022-09-28T13:23:26.573Z,13.93
2022-09-28T13:26:19.734Z,13.99
2022-09-28T13:28:50.366Z,14.07
2022-09-28T13:31:31.806Z,14.09
2022-09-28T13:34:03.607Z,14.08
2022-09-28T13:36:31.369Z,14.08
2022-09-28T13:39:00.975Z,14.16
2022-09-28T13:41:40.548Z,14.29
2022-09-28T13:44:11.079Z,14.37
2022-09-28T13:47:00.720Z,14.40
2022-09-28T13:49:42.718Z,14.41
2022-09-28T13:52:44.377Z,14.39
2022-09-28T13:55:18.176Z,14.37
2022-09-28T13:57:54.956Z,14.35
2022-09-28T14:00:45.658Z,14.35
2022-09-28T14:03:26.016Z,14.39
2022-09-28T14:06:27.217Z,14.42
2022-09-28T14:09:13.046Z,14.40
2022-09-28T14:11:42.605Z,14.37
2022-09-28T14:14:14.267Z,14.32
2022-09-28T14:16:42.959Z,14.25
2022-09-28T14:19:24.491Z,14.18
2022-09-28T14:22:13.742Z,14.11
2022-09-28T14:25:06.698Z,14.04
2022-09-28T14:28:01.241Z,13.99
2022-09-28T14:30:38.423Z,13.97
2022-09-28T14:33:28.067Z,13.97
2022-09-28T14:36:02.781Z,13.97
2022-09-28T14:39:03.828Z,13.95
2022-09-28T14:41:43.354Z,13.94
2022-09-28T14:44:13.273Z,13.93
2022-09-28T14:46:45.725Z,13.96
2022-09-28T14:49:25.210Z,13.97
2022-09-28T14:51:52.942Z,13.96
2022-09-28T14:54:22.841Z,13.96
2022-09-28T14:56:53.522Z,13.94
2022-09-28T14:59:22.788Z,13.96
2022-09-28T15:01:51.777Z,13.95
2022-09-28T15:04:20.472Z,13.92
2022-09-28T15:06:50.887Z,13.89
2022-09-28T15:09:35.202Z,13.85
2022-09-28T15:12:07.819Z,13.80
2022-09-28T15:14:45.211Z,13.75
2022-09-28T15:17:19.318Z,13.69
2022-09-28T15:20:41.862Z,13.64
2022-09-28T15:23:27.290Z,13.59
2022-09-28T15:25:55.523Z,13.53
2022-09-28T15:28:24.715Z,13.48
2022-09-28T15:31:00.456Z,13.43
2022-09-28T15:33:51.370Z,13.37
2022-09-28T15:36:26.613Z,13.30
2022-09-28T15:39:00.419Z,13.24
2022-09-28T15:41:29.099Z,13.18
2022-09-28T15:44:32.496Z,13.12
2022-09-28T15:47:05.377Z,13.06
2022-09-28T15:49:46.287Z,13.01
2022-09-28T15:52:28.349Z,12.96
2022-09-28T15:54:57.750Z,12.90
2022-09-28T15:57:38.381Z,12.84
2022-09-28T16:00:22.090Z,12.78
2022-09-28T16:03:06.788Z,12.72
2022-09-28T16:05:58.443Z,12.67
2022-09-28T16:08:42.394Z,12.61
2022-09-28T16:11:35.664Z,12.56
2022-09-28T16:14:21.883Z,12.49
2022-09-28T16:16:51.870Z,12.43
2022-09-28T16:19:28.491Z,12.38
2022-09-28T16:22:00.000Z,12.33
2022-09-28T16:24:38.688Z,12.28
2022-09-28T16:27:28.777Z,12.23
2022-09-28T16:30:21.932Z,12.17
2022-09-28T16:33:01.545Z,12.11
2022-09-28T16:35:32.317Z,12.06
2022-09-28T16:38:16.661Z,12.01
2022-09-28T16:40:49.732Z,11.97
2022-09-28T16:43:24.953Z,11.92
2022-09-28T16:45:56.868Z,11.89
2022-09-28T16:48:30.409Z,11.86
2022-09-28T16:50:59.317Z,11.82
2022-09-28T16:53:46.248Z,11.79
2022-09-28T16:56:14.560Z,11.78
2022-09-28T16:58:42.644Z,11.76
2022-09-28T17:01:12.635Z,11.74
2022-09-28T17:03:47.068Z,11.73
2022-09-28T17:06:17.253Z,11.70
2022-09-28T17:08:45.684Z,11.67
2022-09-28T17:11:20.507Z,11.65
2022-09-28T17:13:52.627Z,11.63
2022-09-28T17:16:42.629Z,11.61
2022-09-28T17:19:23.998Z,11.60
2022-09-28T17:21:52.878Z,11.59
2022-09-28T17:24:21.042Z,11.59
2022-09-28T17:26:51.314Z,11.57
2022-09-28T17:29:19.767Z,11.55
2022-09-28T17:31:48.337Z,11.53
2022-09-28T17:34:16.755Z,11.48
2022-09-28T17:36:48.527Z,11.44
2022-09-28T17:39:21.618Z,11.41
2022-09-28T17:41:50.466Z,11.36
2022-09-28T17:44:21.155Z,11.32
2022-09-28T17:46:52.731Z,11.29
2022-09-28T17:49:23.498Z,11.25
2022-09-28T17:51:54.445Z,11.21
2022-09-28T17:54:26.837Z,11.18
2022-09-28T17:56:55.099Z,11.14
2022-09-28T17:59:23.790Z,11.11
2022-09-28T18:01:51.829Z,11.07
2022-09-28T18:04:47.301Z,11.04
2022-09-28T18:07:18.492Z,10.99
2022-09-28T18:10:05.599Z,10.96
2022-09-28T18:12:35.586Z,10.93
2022-09-28T18:15:03.475Z,10.90
2022-09-28T18:17:31.343Z,10.87
2022-09-28T18:19:59.108Z,10.85
2022-09-28T18:22:31.814Z,10.81
2022-09-28T18:25:09.947Z,10.80
2022-09-28T18:27:45.923Z,10.77
2022-09-28T18:30:18.195Z,10.74
2022-09-28T18:32:45.949Z,10.71
2022-09-28T18:35:13.652Z,10.68
2022-09-28T18:37:41.663Z,10.68
2022-09-28T18:40:13.030Z,10.64
2022-09-28T18:42:42.128Z,10.61
2022-09-28T18:45:11.348Z,10.58
2022-09-28T18:47:40.111Z,10.55
2022-09-28T18:50:08.823Z,10.53
2022-09-28T18:52:37.475Z,10.50
2022-09-28T18:55:07.662Z,10.48
2022-09-28T18:57:36.236Z,10.48
2022-09-28T19:00:06.840Z,10.47
2022-09-28T19:02:35.695Z,10.46
2022-09-28T19:05:05.820Z,10.45
2022-09-28T19:07:34.603Z,10.44
2022-09-28T19:10:02.473Z,10.44
2022-09-28T19:12:30.642Z,10.42
2022-09-28T19:14:59.842Z,10.40
2022-09-28T19:17:27.705Z,10.38
2022-09-28T19:19:55.508Z,10.36
2022-09-28T19:22:23.225Z,10.36
2022-09-28T19:24:51.096Z,10.37
2022-09-28T19:27:18.963Z,10.37
2022-09-28T19:29:46.825Z,10.37
2022-09-28T19:32:15.926Z,10.36
2022-09-28T19:34:43.684Z,10.36
2022-09-28T19:37:11.405Z,10.36
2022-09-28T19:39:39.161Z,10.35
2022-09-28T19:42:07.188Z,10.32
2022-09-28T19:44:35.966Z,10.29
2022-09-28T19:47:07.071Z,10.28
2022-09-28T19:49:38.665Z,10.27
2022-09-28T19:52:16.393Z,10.25
2022-09-28T19:54:57.086Z,10.25
2022-09-28T19:57:27.942Z,10.22
2022-09-28T20:00:01.705Z,10.19
2022-09-28T20:02:30.592Z,10.15
2022-09-28T20:04:58.520Z,10.11
2022-09-28T20:07:26.280Z,10.07
2022-09-28T20:09:54.145Z,10.04
2022-09-28T20:12:22.546Z,10.00
2022-09-28T20:14:50.390Z,9.97
2022-09-28T20:17:19.484Z,9.95
2022-09-28T20:19:48.167Z,9.93
2022-09-28T20:22:17.164Z,9.91
2022-09-28T20:24:44.931Z,9.89
2022-09-28T20:27:12.792Z,9.87
2022-09-28T20:29:40.591Z,9.85
2022-09-28T20:32:08.979Z,9.83
2022-09-28T20:34:36.795Z,9.83
2022-09-28T20:37:04.559Z,9.83
2022-09-28T20:39:33.257Z,9.84
2022-09-28T20:42:01.108Z,9.85
2022-09-28T20:44:28.974Z,9.86
2022-09-28T20:46:56.888Z,9.85
2022-09-28T20:49:24.808Z,9.85
2022-09-28T20:51:52.982Z,9.87
2022-09-28T20:54:21.918Z,9.86
2022-09-28T20:56:50.006Z,9.86
2022-09-28T20:59:18.221Z,9.86
2022-09-28T21:01:46.012Z,9.87
2022-09-28T21:04:13.948Z,9.88
2022-09-28T21:06:42.521Z,9.88
2022-09-28T21:09:11.469Z,9.88
2022-09-28T21:11:39.557Z,9.88
2022-09-28T21:14:09.689Z,9.87
2022-09-28T21:16:37.998Z,9.86
2022-09-28T21:19:05.826Z,9.86
2022-09-28T21:21:33.580Z,9.84
2022-09-28T21:24:02.245Z,9.82
2022-09-28T21:26:31.156Z,9.80
2022-09-28T21:29:00.092Z,9.78
2022-09-28T21:31:31.671Z,9.76
2022-09-28T21:33:59.763Z,9.71
2022-09-28T21:36:27.507Z,9.67
2022-09-28T21:38:55.624Z,9.63
2022-09-28T21:41:24.936Z,9.58
2022-09-28T21:43:52.768Z,9.55
2022-09-28T21:46:20.729Z,9.50
2022-09-28T21:48:53.714Z,9.45
2022-09-28T21:51:22.042Z,9.40
2022-09-28T21:53:50.102Z,9.37
2022-09-28T21:56:17.972Z,9.33
2022-09-28T21:58:46.077Z,9.26
2022-09-28T22:01:19.832Z,9.22
2022-09-28T22:03:52.960Z,9.17
2022-09-28T22:06:23.155Z,9.13
2022-09-28T22:08:51.225Z,9.10
2022-09-28T22:11:22.264Z,9.08
2022-09-28T22:13:52.687Z,9.05
2022-09-28T22:16:23.976Z,9.00
2022-09-28T22:18:52.514Z,8.97
2022-09-28T22:21:23.042Z,8.95
2022-09-28T22:23:51.214Z,8.94
2022-09-28T22:26:25.411Z,8.93
2022-09-28T22:28:58.781Z,8.93
2022-09-28T22:31:29.449Z,8.91
2022-09-28T22:33:58.108Z,8.86
2022-09-28T22:36:26.316Z,8.82
2022-09-28T22:38:55.424Z,8.79
2022-09-28T22:41:24.602Z,8.75
2022-09-28T22:43:54.418Z,8.71
2022-09-28T22:46:25.390Z,8.67
2022-09-28T22:48:55.886Z,8.63
2022-09-28T22:51:25.324Z,8.60
2022-09-28T22:53:53.249Z,8.57
2022-09-28T22:56:21.013Z,8.52
2022-09-28T22:58:48.878Z,8.48
2022-09-28T23:01:23.120Z,8.43
2022-09-28T23:03:52.910Z,8.38
2022-09-28T23:06:23.377Z,8.32
2022-09-28T23:08:52.022Z,8.28
2022-09-28T23:11:20.285Z,8.26
2022-09-28T23:13:56.434Z,8.23
2022-09-28T23:16:25.858Z,8.20
2022-09-28T23:18:55.460Z,8.17
2022-09-28T23:21:26.068Z,8.14
2022-09-28T23:24:01.224Z,8.11
2022-09-28T23:26:32.579Z,8.10
2022-09-28T23:29:00.746Z,8.09
2022-09-28T23:31:33.138Z,8.08
2022-09-28T23:34:05.692Z,8.08
2022-09-28T23:36:34.263Z,8.10
2022-09-28T23:39:03.368Z,8.12
2022-09-28T23:41:31.437Z,8.17
2022-09-28T23:43:59.207Z,8.23
2022-09-28T23:46:27.333Z,8.27
2022-09-28T23:48:55.150Z,8.32
2022-09-28T23:51:22.922Z,8.37
2022-09-28T23:53:50.953Z,8.41
2022-09-28T23:56:18.713Z,8.45
2022-09-28T23:58:46.420Z,8.48
